createdAt,value
2017-09-09T00:00:08.052Z,78
2017-09-09T00:05:25.506Z,78.3
2017-09-09T00:10:05.171Z,78.4
2017-09-09T00:15:05.417Z,78.5
2017-09-09T00:20:03.180Z,78.5
2017-09-09T00:25:05.414Z,78.5
2017-09-09T00:30:10.707Z,78.1
2017-09-09T00:35:03.398Z,78.1
2017-09-09T00:40:02.542Z,77.7
2017-09-09T00:45:08.362Z,77.8
2017-09-09T00:50:03.076Z,77.8
2017-09-09T00:55:03.067Z,77.8
2017-09-09T01:00:02.764Z,77.8
2017-09-09T01:05:08.561Z,77.5
2017-09-09T01:10:02.706Z,77.5
2017-09-09T01:15:08.488Z,77.1
2017-09-09T01:20:03.255Z,77.1
2017-09-09T01:25:10.564Z,76.6
2017-09-09T01:30:05.783Z,76.9
2017-09-09T01:35:03.459Z,76.9
2017-09-09T01:40:02.600Z,77
2017-09-09T01:45:03.315Z,76.6
2017-09-09T01:50:05.563Z,76.4
2017-09-09T01:55:03.278Z,76.4
2017-09-09T02:00:05.547Z,75.8
2017-09-09T02:05:20.956Z,75.8
2017-09-09T02:10:23.335Z,76
2017-09-09T02:15:03.038Z,75.9
2017-09-09T02:20:05.354Z,75.3
2017-09-09T02:25:03.031Z,75.3
2017-09-09T02:30:02.748Z,75.3
2017-09-09T02:35:05.990Z,75.3
2017-09-09T02:40:05.696Z,74.9
2017-09-09T02:45:08.447Z,74.9
2017-09-09T02:50:03.154Z,75
2017-09-09T02:55:02.863Z,74.8
2017-09-09T03:00:02.604Z,74.9
2017-09-09T03:05:03.305Z,74.9
2017-09-09T03:10:08.533Z,73.8
2017-09-09T03:15:05.755Z,73.9
2017-09-09T03:20:05.082Z,73.6
2017-09-09T03:25:02.831Z,73.5
2017-09-09T03:30:05.074Z,73.1
2017-09-09T03:35:05.336Z,72.7
2017-09-09T03:40:11.103Z,72.7
2017-09-09T03:45:02.774Z,72.7
2017-09-09T03:50:03.500Z,73
2017-09-09T03:55:05.726Z,73.4
2017-09-09T04:00:03.407Z,73.4
2017-09-09T04:05:05.622Z,72.9
2017-09-09T04:10:05.261Z,72.9
2017-09-09T04:15:05.501Z,72.7
2017-09-09T04:20:10.894Z,72.6
2017-09-09T04:25:27.902Z,72.3
2017-09-09T04:30:02.597Z,72.3
2017-09-09T04:35:05.845Z,72.2
2017-09-09T04:40:05.571Z,72.3
2017-09-09T04:45:03.289Z,72.3
2017-09-09T04:50:10.617Z,72
2017-09-09T04:55:05.844Z,72.7
2017-09-09T05:00:05.049Z,72.4
2017-09-09T05:05:02.727Z,72.4
2017-09-09T05:10:10.458Z,72.4
2017-09-09T05:15:03.129Z,72.4
2017-09-09T05:20:07.963Z,72.3
2017-09-09T05:25:05.159Z,72.7
2017-09-09T05:30:05.374Z,72.3
2017-09-09T05:35:03.032Z,72.3
2017-09-09T05:40:05.685Z,72.5
2017-09-09T05:45:03.366Z,72.5
2017-09-09T05:50:03.084Z,73.3
2017-09-09T05:55:10.394Z,74
2017-09-09T06:00:10.710Z,73.9
2017-09-09T06:05:03.414Z,73.9
2017-09-09T06:10:05.151Z,74.5
2017-09-09T06:15:02.842Z,74.4
2017-09-09T06:20:05.174Z,74.1
2017-09-09T06:25:13.083Z,74.2
2017-09-09T06:30:10.350Z,73.7
2017-09-09T06:35:03.052Z,73.7
2017-09-09T06:40:05.738Z,74.2
2017-09-09T06:45:06.023Z,74.3
2017-09-09T06:50:17.926Z,74.1
2017-09-09T06:55:05.171Z,74.1
2017-09-09T07:00:02.905Z,74
2017-09-09T07:05:10.237Z,73.7
2017-09-09T07:10:03.369Z,73.7
2017-09-09T07:15:05.638Z,74.7
2017-09-09T07:20:07.801Z,75.6
2017-09-09T07:25:03.165Z,75.6
2017-09-09T07:30:08.250Z,76.5
2017-09-09T07:35:05.847Z,77.1
2017-09-09T07:40:03.033Z,77.1
2017-09-09T07:45:10.351Z,77.5
2017-09-09T07:50:10.671Z,78.6
2017-09-09T07:55:03.373Z,78.6
2017-09-09T08:00:03.070Z,79.2
2017-09-09T08:05:10.367Z,80.1
2017-09-09T08:10:02.525Z,80.1
2017-09-09T08:15:05.793Z,80.9
2017-09-09T08:20:05.088Z,81.4
2017-09-09T08:25:02.800Z,81.4
2017-09-09T08:30:05.053Z,82.1
2017-09-09T08:35:07.830Z,82.4
2017-09-09T08:40:05.604Z,82.6
2017-09-09T08:45:16.076Z,82.4
2017-09-09T08:50:05.291Z,82.4
2017-09-09T08:55:03.000Z,82.4
2017-09-09T09:00:02.732Z,83.1
2017-09-09T09:05:11.013Z,82.7
2017-09-09T09:10:03.183Z,82.7
2017-09-09T09:15:05.433Z,82.8
2017-09-09T09:20:08.294Z,82.6
2017-09-09T09:25:03.010Z,82.6
2017-09-09T09:30:02.717Z,82.8
2017-09-09T09:35:05.963Z,83.2
2017-09-09T09:40:05.638Z,83.8
2017-09-09T09:45:05.892Z,84.7
2017-09-09T09:50:02.569Z,84.7
2017-09-09T09:55:03.283Z,84.3
2017-09-09T10:00:02.962Z,84.5
2017-09-09T10:05:05.224Z,86.5
2017-09-09T10:10:10.949Z,86.8
2017-09-09T10:15:02.620Z,86.8
2017-09-09T10:20:05.939Z,87.6
2017-09-09T10:25:02.663Z,87.5
2017-09-09T10:30:08.438Z,87.8
2017-09-09T10:35:05.769Z,87.3
2017-09-09T10:40:02.964Z,87.3
2017-09-09T10:45:15.323Z,87.5
2017-09-09T10:50:05.572Z,86
2017-09-09T10:55:08.349Z,85.3
2017-09-09T11:00:08.114Z,84.9
2017-09-09T11:05:07.921Z,84.7
2017-09-09T11:10:05.560Z,84.3
2017-09-09T11:15:05.802Z,84.6
2017-09-09T11:20:07.653Z,84
2017-09-09T11:25:10.990Z,82.9
2017-09-09T11:30:02.707Z,82.9
2017-09-09T11:35:03.423Z,82.9
2017-09-09T11:40:07.666Z,82.8
2017-09-09T11:45:05.950Z,84.8
2017-09-09T11:50:10.295Z,84.6
2017-09-09T11:55:03.000Z,84.6
2017-09-09T12:00:05.246Z,83.6
2017-09-09T12:05:05.479Z,83.6
2017-09-09T12:10:07.708Z,82.9
2017-09-09T12:15:21.136Z,82.6
2017-09-09T12:20:02.942Z,82.5
2017-09-09T12:25:07.737Z,82.1
2017-09-09T12:30:03.457Z,82.1
2017-09-09T12:35:08.238Z,81.4
2017-09-09T12:40:08.523Z,81
2017-09-09T12:45:15.874Z,81.1
2017-09-09T12:50:10.128Z,81.4
2017-09-09T12:55:02.853Z,81.2
2017-09-09T13:00:07.756Z,79.8
2017-09-09T13:05:03.461Z,79.8
2017-09-09T13:10:05.126Z,80.4
2017-09-09T13:15:02.811Z,80.4
2017-09-09T13:20:07.684Z,80
2017-09-09T13:25:18.563Z,78.6
2017-09-09T13:30:03.293Z,78.6
2017-09-09T13:35:08.073Z,78.5
2017-09-09T13:40:05.738Z,78.5
2017-09-09T13:45:03.430Z,78.5
2017-09-09T13:50:05.672Z,77.2
2017-09-09T13:55:03.442Z,77.3
2017-09-09T14:00:03.155Z,76.5
2017-09-09T14:05:02.862Z,75.1
2017-09-09T14:10:05.546Z,74.3
2017-09-09T14:15:03.234Z,74.3
2017-09-09T14:20:25.764Z,72.6
2017-09-09T14:25:05.992Z,71.2
2017-09-09T14:30:05.840Z,70.8
2017-09-09T14:35:05.034Z,69.1
2017-09-09T14:40:05.766Z,67.8
2017-09-09T14:45:03.498Z,67.8
2017-09-09T14:50:10.796Z,68.1
2017-09-09T14:55:06.025Z,68.2
2017-09-09T15:00:02.745Z,68.2
2017-09-09T15:05:03.457Z,69.4
2017-09-09T15:10:17.825Z,68.2
2017-09-09T15:15:02.563Z,68.2
2017-09-09T15:20:05.898Z,66.8
2017-09-09T15:25:05.153Z,67.1
2017-09-09T15:30:02.883Z,67
2017-09-09T15:35:05.123Z,67.1
2017-09-09T15:40:03.322Z,67.2
2017-09-09T15:45:03.048Z,67.9
2017-09-09T15:50:05.281Z,68.4
2017-09-09T15:55:05.499Z,69.3
2017-09-09T16:00:03.176Z,69.2
2017-09-09T16:05:02.920Z,69.7
2017-09-09T16:10:05.636Z,70.5
2017-09-09T16:15:08.407Z,71
2017-09-09T16:20:03.163Z,71
2017-09-09T16:25:02.912Z,71.8
2017-09-09T16:30:02.622Z,72.1
2017-09-09T16:35:03.367Z,73.2
2017-09-09T16:40:05.073Z,73.3
2017-09-09T16:45:05.304Z,73.8
2017-09-09T16:50:13.165Z,74
2017-09-09T16:55:05.394Z,74.7
2017-09-09T17:00:08.198Z,74.7
2017-09-09T17:05:05.430Z,75.2
2017-09-09T17:10:05.123Z,75.4
2017-09-09T17:15:05.353Z,75.9
2017-09-09T17:20:26.020Z,76.2
2017-09-09T17:25:05.234Z,76.7
2017-09-09T17:30:02.952Z,76.7
2017-09-09T17:35:02.679Z,76.8
2017-09-09T17:40:02.869Z,77.2
2017-09-09T17:45:05.158Z,77.7
2017-09-09T17:50:10.465Z,77.7
2017-09-09T17:55:03.183Z,77.7
2017-09-09T18:00:02.903Z,78.1
2017-09-09T18:05:17.811Z,78.9
2017-09-09T18:10:05.475Z,78.5
2017-09-09T18:15:03.198Z,78.4
2017-09-09T18:20:10.576Z,78.2
2017-09-09T18:25:05.822Z,78.3
2017-09-09T18:30:07.674Z,78.8
2017-09-09T18:35:08.409Z,79
2017-09-09T18:40:07.645Z,79.1
2017-09-09T18:45:05.862Z,79.4
2017-09-09T18:50:02.620Z,79.3
2017-09-09T18:55:03.374Z,79
2017-09-09T19:00:08.175Z,79.1
2017-09-09T19:05:07.945Z,79.5
2017-09-09T19:10:05.568Z,79.3
2017-09-09T19:15:03.242Z,79.3
2017-09-09T19:20:03.033Z,79.1
2017-09-09T19:25:10.318Z,78.9
2017-09-09T19:30:02.994Z,78.9
2017-09-09T19:35:07.787Z,78.7
2017-09-09T19:40:02.940Z,78.7
2017-09-09T19:45:02.645Z,78.7
2017-09-09T19:50:05.903Z,78.5
2017-09-09T19:55:05.139Z,78.4
2017-09-09T20:00:05.382Z,78.3
2017-09-09T20:05:05.610Z,78.4
2017-09-09T20:10:10.355Z,78.3
2017-09-09T20:15:05.570Z,78.7
2017-09-09T20:20:08.405Z,78.9
2017-09-09T20:25:03.073Z,78.9
2017-09-09T20:30:02.786Z,79
2017-09-09T20:35:11.070Z,78.6
2017-09-09T20:40:03.189Z,78.6
2017-09-09T20:45:05.457Z,78.3
2017-09-09T20:50:03.138Z,78.2
2017-09-09T20:55:05.398Z,78.4
2017-09-09T21:00:03.086Z,78.3
2017-09-09T21:05:05.333Z,78.8
2017-09-09T21:10:11.043Z,78.6
2017-09-09T21:15:05.259Z,78.4
2017-09-09T21:20:08.137Z,78.4
2017-09-09T21:25:05.389Z,78.8
2017-09-09T21:30:03.067Z,78.9
2017-09-09T21:35:02.772Z,78.4
2017-09-09T21:40:08.043Z,78.3
2017-09-09T21:45:07.811Z,78.5
2017-09-09T21:50:05.019Z,78.5
2017-09-09T21:55:02.782Z,78.5
2017-09-09T22:00:06.044Z,78.5
2017-09-09T22:05:02.803Z,78.5
2017-09-09T22:10:13.431Z,78.8
2017-09-09T22:15:03.103Z,78.7
2017-09-09T22:20:05.406Z,79.5
2017-09-09T22:25:05.624Z,79.2
2017-09-09T22:30:03.288Z,79
2017-09-09T22:35:02.759Z,79
2017-09-09T22:40:07.998Z,79.1
2017-09-09T22:45:25.468Z,79.3
2017-09-09T22:50:03.133Z,79.3
2017-09-09T22:55:05.368Z,79.2
2017-09-09T23:00:05.644Z,80.1
2017-09-09T23:05:03.308Z,80.1
2017-09-09T23:10:03.505Z,80.2
2017-09-09T23:15:08.278Z,80.8
2017-09-09T23:20:05.612Z,80.5
2017-09-09T23:25:03.316Z,80.5
2017-09-09T23:30:02.987Z,80.4
2017-09-09T23:35:02.698Z,81.1
2017-09-09T23:40:05.406Z,81.4
2017-09-09T23:45:03.181Z,81.4
2017-09-09T23:50:02.950Z,81.3
2017-09-09T23:55:07.728Z,81.3
